Main page
METAR-TAF:

METAR-TAF

Airports :

Base Aérea de Alcantarilla

Murcia, Spain

latitude: 37-57N, longitude: 001-14W, elevation: 75 m

Current weather observation

The report was made 16 hours and 7 minutes ago, at 11:00 UTC
Wind 6 kt from the Northeast, varying between North and South/Southeast
Temperature 26°C
Humidity 37%
Pressure 1026 hPa
Visibility 10 km or more
no clouds below 1500 m and no cumulonimbus

METAR: LERI 251100Z 05006KT 010V150 CAVOK 26/10 Q1026 NOSIG

Time: 05:07 (03:07 UTC)

Forecast

The report was made 1 hour and 7 minutes ago, at 02:00 UTC
Forecast valid from 26 at 03 UTC to 26 at 12 UTC
Wind 2 kt from variable directions
Visibility 10 km or more
no clouds below 1500 m and no cumulonimbus
Becoming
from 26 at 08 UTC to 26 at 10 UTC
Wind 12 kt from the East/Northeast

TAF: LERI 260200Z 2603/2612 VRB02KT CAVOK BECMG 2608/2610 06012KT

Weather observations and forecasts of more than 4000 airports (METAR and TAF reports).

The available stations are represented by yellow and red dots on the map.

Hover mouse over dot to see the name of the station.

Then click to see weather observations and forecasts.

To change the map : click on the green buttons with a black cross to zoom in, on the green button with a dash to zoom out, or on the green arrows for adjacent maps.


METAR-TAF: